sensor_id;sensor_type;location;lat;lon;timestamp;P1;durP1;ratioP1;P2;durP2;ratioP2
36547;SDS011;22551;52.206;4.856;2023-04-25T00:03:43;5.03;;;1.48;;
36547;SDS011;22551;52.206;4.856;2023-04-25T00:08:47;11.52;;;2.05;;
36547;SDS011;22551;52.206;4.856;2023-04-25T00:13:49;9.13;;;2.42;;
36547;SDS011;22551;52.206;4.856;2023-04-25T00:18:52;6.60;;;2.00;;
36547;SDS011;22551;52.206;4.856;2023-04-25T00:23:55;3.90;;;1.67;;
36547;SDS011;22551;52.206;4.856;2023-04-25T00:29:03;7.95;;;3.00;;
36547;SDS011;22551;52.206;4.856;2023-04-25T00:34:05;7.82;;;2.17;;
36547;SDS011;22551;52.206;4.856;2023-04-25T00:39:12;7.93;;;1.83;;
36547;SDS011;22551;52.206;4.856;2023-04-25T00:44:15;6.40;;;2.25;;
36547;SDS011;22551;52.206;4.856;2023-04-25T00:49:18;6.68;;;1.83;;
36547;SDS011;22551;52.206;4.856;2023-04-25T00:54:22;9.52;;;2.08;;
36547;SDS011;22551;52.206;4.856;2023-04-25T00:59:51;10.95;;;2.25;;
36547;SDS011;22551;52.206;4.856;2023-04-25T01:04:58;13.77;;;3.35;;
36547;SDS011;22551;52.206;4.856;2023-04-25T01:10:08;9.13;;;2.42;;
36547;SDS011;22551;52.206;4.856;2023-04-25T01:15:11;9.50;;;2.75;;
36547;SDS011;22551;52.206;4.856;2023-04-25T01:20:13;7.70;;;2.55;;
36547;SDS011;22551;52.206;4.856;2023-04-25T01:25:18;12.75;;;2.22;;
36547;SDS011;22551;52.206;4.856;2023-04-25T01:30:21;9.32;;;2.60;;
36547;SDS011;22551;52.206;4.856;2023-04-25T01:35:23;8.15;;;2.35;;
36547;SDS011;22551;52.206;4.856;2023-04-25T01:40:27;11.65;;;1.88;;
36547;SDS011;22551;52.206;4.856;2023-04-25T01:45:30;7.47;;;2.50;;
36547;SDS011;22551;52.206;4.856;2023-04-25T01:50:33;9.80;;;1.75;;
36547;SDS011;22551;52.206;4.856;2023-04-25T01:55:39;9.80;;;1.75;;
36547;SDS011;22551;52.206;4.856;2023-04-25T02:00:49;7.93;;;1.90;;
36547;SDS011;22551;52.206;4.856;2023-04-25T02:05:54;6.70;;;1.40;;
36547;SDS011;22551;52.206;4.856;2023-04-25T02:10:57;6.93;;;2.83;;
36547;SDS011;22551;52.206;4.856;2023-04-25T02:16:10;13.65;;;1.80;;
36547;SDS011;22551;52.206;4.856;2023-04-25T02:21:15;7.53;;;2.25;;
36547;SDS011;22551;52.206;4.856;2023-04-25T02:26:21;7.63;;;1.75;;
36547;SDS011;22551;52.206;4.856;2023-04-25T02:31:30;8.50;;;1.30;;
36547;SDS011;22551;52.206;4.856;2023-04-25T02:36:40;9.70;;;1.88;;
36547;SDS011;22551;52.206;4.856;2023-04-25T02:41:51;9.68;;;1.98;;
36547;SDS011;22551;52.206;4.856;2023-04-25T02:46:53;5.95;;;2.58;;
36547;SDS011;22551;52.206;4.856;2023-04-25T02:51:56;5.82;;;1.95;;
36547;SDS011;22551;52.206;4.856;2023-04-25T02:56:59;11.65;;;1.55;;
36547;SDS011;22551;52.206;4.856;2023-04-25T03:02:02;8.65;;;1.63;;
36547;SDS011;22551;52.206;4.856;2023-04-25T03:07:04;7.90;;;1.40;;
36547;SDS011;22551;52.206;4.856;2023-04-25T03:12:08;4.15;;;1.52;;
36547;SDS011;22551;52.206;4.856;2023-04-25T03:17:10;3.13;;;1.23;;
36547;SDS011;22551;52.206;4.856;2023-04-25T03:22:13;9.50;;;1.42;;
36547;SDS011;22551;52.206;4.856;2023-04-25T03:27:16;4.38;;;1.52;;
36547;SDS011;22551;52.206;4.856;2023-04-25T03:32:19;7.78;;;1.42;;
36547;SDS011;22551;52.206;4.856;2023-04-25T03:37:21;4.53;;;1.20;;
36547;SDS011;22551;52.206;4.856;2023-04-25T03:42:24;8.88;;;1.63;;
36547;SDS011;22551;52.206;4.856;2023-04-25T03:47:28;5.50;;;1.35;;
36547;SDS011;22551;52.206;4.856;2023-04-25T03:52:33;6.75;;;1.05;;
36547;SDS011;22551;52.206;4.856;2023-04-25T03:57:41;12.77;;;1.35;;
36547;SDS011;22551;52.206;4.856;2023-04-25T04:02:49;12.43;;;1.80;;
36547;SDS011;22551;52.206;4.856;2023-04-25T04:07:51;8.55;;;1.38;;
36547;SDS011;22551;52.206;4.856;2023-04-25T04:12:54;8.85;;;1.48;;
36547;SDS011;22551;52.206;4.856;2023-04-25T04:17:57;4.55;;;1.40;;
36547;SDS011;22551;52.206;4.856;2023-04-25T04:23:02;8.15;;;1.20;;
36547;SDS011;22551;52.206;4.856;2023-04-25T04:28:11;5.30;;;1.08;;
36547;SDS011;22551;52.206;4.856;2023-04-25T04:33:18;4.18;;;1.02;;
36547;SDS011;22551;52.206;4.856;2023-04-25T04:38:20;6.15;;;1.38;;
36547;SDS011;22551;52.206;4.856;2023-04-25T04:43:27;3.08;;;0.57;;
36547;SDS011;22551;52.206;4.856;2023-04-25T04:48:30;7.20;;;0.88;;
36547;SDS011;22551;52.206;4.856;2023-04-25T04:53:34;1.40;;;0.60;;
36547;SDS011;22551;52.206;4.856;2023-04-25T04:58:37;4.10;;;0.90;;
36547;SDS011;22551;52.206;4.856;2023-04-25T05:03:39;2.25;;;0.90;;
36547;SDS011;22551;52.206;4.856;2023-04-25T05:08:42;4.93;;;0.60;;
36547;SDS011;22551;52.206;4.856;2023-04-25T05:13:45;4.15;;;0.90;;
36547;SDS011;22551;52.206;4.856;2023-04-25T05:18:48;3.20;;;0.60;;
36547;SDS011;22551;52.206;4.856;2023-04-25T05:23:50;5.97;;;1.20;;
36547;SDS011;22551;52.206;4.856;2023-04-25T05:28:54;3.55;;;0.70;;
36547;SDS011;22551;52.206;4.856;2023-04-25T05:33:56;4.63;;;1.00;;
36547;SDS011;22551;52.206;4.856;2023-04-25T05:39:26;7.63;;;1.15;;
36547;SDS011;22551;52.206;4.856;2023-04-25T05:44:29;3.75;;;1.15;;
36547;SDS011;22551;52.206;4.856;2023-04-25T05:49:32;6.00;;;0.60;;
36547;SDS011;22551;52.206;4.856;2023-04-25T05:54:46;4.55;;;0.77;;
36547;SDS011;22551;52.206;4.856;2023-04-25T06:00:11;2.83;;;0.90;;
36547;SDS011;22551;52.206;4.856;2023-04-25T06:05:27;3.30;;;0.90;;
36547;SDS011;22551;52.206;4.856;2023-04-25T06:10:48;4.22;;;1.15;;
36547;SDS011;22551;52.206;4.856;2023-04-25T06:21:34;4.63;;;1.20;;
36547;SDS011;22551;52.206;4.856;2023-04-25T06:26:42;10.32;;;1.75;;
36547;SDS011;22551;52.206;4.856;2023-04-25T06:32:00;7.95;;;1.25;;
36547;SDS011;22551;52.206;4.856;2023-04-25T06:37:32;13.65;;;1.10;;
36547;SDS011;22551;52.206;4.856;2023-04-25T06:42:40;5.60;;;0.75;;
36547;SDS011;22551;52.206;4.856;2023-04-25T06:47:56;7.38;;;1.25;;
36547;SDS011;22551;52.206;4.856;2023-04-25T06:53:06;7.45;;;0.90;;
36547;SDS011;22551;52.206;4.856;2023-04-25T06:58:19;3.28;;;0.80;;
36547;SDS011;22551;52.206;4.856;2023-04-25T07:03:38;5.28;;;0.63;;
36547;SDS011;22551;52.206;4.856;2023-04-25T07:09:26;3.00;;;0.65;;
36547;SDS011;22551;52.206;4.856;2023-04-25T07:14:51;2.00;;;0.47;;
36547;SDS011;22551;52.206;4.856;2023-04-25T07:19:57;2.95;;;0.30;;
36547;SDS011;22551;52.206;4.856;2023-04-25T07:25:03;2.00;;;0.32;;
36547;SDS011;22551;52.206;4.856;2023-04-25T07:30:09;2.67;;;0.47;;
36547;SDS011;22551;52.206;4.856;2023-04-25T07:35:16;4.68;;;0.38;;
36547;SDS011;22551;52.206;4.856;2023-04-25T07:40:22;2.22;;;0.68;;
36547;SDS011;22551;52.206;4.856;2023-04-25T07:45:38;2.72;;;0.52;;
36547;SDS011;22551;52.206;4.856;2023-04-25T07:50:47;9.30;;;0.95;;
36547;SDS011;22551;52.206;4.856;2023-04-25T07:55:49;4.00;;;0.65;;
36547;SDS011;22551;52.206;4.856;2023-04-25T08:00:56;2.42;;;0.70;;
36547;SDS011;22551;52.206;4.856;2023-04-25T08:06:00;10.25;;;0.77;;
36547;SDS011;22551;52.206;4.856;2023-04-25T08:11:08;6.65;;;0.73;;
36547;SDS011;22551;52.206;4.856;2023-04-25T08:16:13;8.13;;;1.13;;
36547;SDS011;22551;52.206;4.856;2023-04-25T08:21:17;4.65;;;0.90;;
36547;SDS011;22551;52.206;4.856;2023-04-25T08:26:19;4.97;;;0.82;;
36547;SDS011;22551;52.206;4.856;2023-04-25T08:31:21;6.43;;;1.25;;
36547;SDS011;22551;52.206;4.856;2023-04-25T08:36:25;7.13;;;0.70;;
36547;SDS011;22551;52.206;4.856;2023-04-25T08:41:36;7.03;;;0.77;;
36547;SDS011;22551;52.206;4.856;2023-04-25T08:46:41;6.07;;;0.60;;
36547;SDS011;22551;52.206;4.856;2023-04-25T08:51:46;12.43;;;0.90;;
36547;SDS011;22551;52.206;4.856;2023-04-25T08:56:54;3.55;;;0.50;;
36547;SDS011;22551;52.206;4.856;2023-04-25T09:02:08;1.80;;;0.43;;
36547;SDS011;22551;52.206;4.856;2023-04-25T09:07:30;8.43;;;0.95;;
36547;SDS011;22551;52.206;4.856;2023-04-25T09:12:38;6.30;;;0.50;;
36547;SDS011;22551;52.206;4.856;2023-04-25T09:17:49;3.50;;;0.70;;
36547;SDS011;22551;52.206;4.856;2023-04-25T09:23:02;0.98;;;0.35;;
36547;SDS011;22551;52.206;4.856;2023-04-25T09:28:10;1.92;;;0.30;;
36547;SDS011;22551;52.206;4.856;2023-04-25T09:33:17;1.30;;;0.20;;
36547;SDS011;22551;52.206;4.856;2023-04-25T09:38:20;2.50;;;0.28;;
36547;SDS011;22551;52.206;4.856;2023-04-25T09:43:23;1.05;;;0.20;;
36547;SDS011;22551;52.206;4.856;2023-04-25T09:48:31;2.22;;;0.40;;
36547;SDS011;22551;52.206;4.856;2023-04-25T09:53:46;2.47;;;0.40;;
36547;SDS011;22551;52.206;4.856;2023-04-25T09:58:55;7.00;;;0.60;;
36547;SDS011;22551;52.206;4.856;2023-04-25T10:04:01;3.30;;;0.47;;
36547;SDS011;22551;52.206;4.856;2023-04-25T10:09:10;5.78;;;0.63;;
36547;SDS011;22551;52.206;4.856;2023-04-25T10:14:14;8.43;;;0.88;;
36547;SDS011;22551;52.206;4.856;2023-04-25T10:19:17;4.50;;;0.93;;
36547;SDS011;22551;52.206;4.856;2023-04-25T10:24:22;3.70;;;0.77;;
36547;SDS011;22551;52.206;4.856;2023-04-25T10:29:26;6.47;;;0.70;;
36547;SDS011;22551;52.206;4.856;2023-04-25T10:34:38;5.38;;;0.73;;
36547;SDS011;22551;52.206;4.856;2023-04-25T10:39:43;5.78;;;0.60;;
36547;SDS011;22551;52.206;4.856;2023-04-25T10:45:00;7.70;;;0.53;;
36547;SDS011;22551;52.206;4.856;2023-04-25T10:50:04;6.45;;;0.60;;
36547;SDS011;22551;52.206;4.856;2023-04-25T10:55:09;5.03;;;0.57;;
36547;SDS011;22551;52.206;4.856;2023-04-25T11:00:12;5.82;;;0.63;;
36547;SDS011;22551;52.206;4.856;2023-04-25T11:05:19;6.57;;;0.68;;
36547;SDS011;22551;52.206;4.856;2023-04-25T11:10:26;7.82;;;0.90;;
36547;SDS011;22551;52.206;4.856;2023-04-25T11:15:31;3.92;;;0.80;;
36547;SDS011;22551;52.206;4.856;2023-04-25T11:20:33;3.45;;;1.08;;
36547;SDS011;22551;52.206;4.856;2023-04-25T11:25:37;2.83;;;0.85;;
36547;SDS011;22551;52.206;4.856;2023-04-25T11:30:47;2.03;;;0.55;;
36547;SDS011;22551;52.206;4.856;2023-04-25T11:35:50;2.63;;;0.73;;
36547;SDS011;22551;52.206;4.856;2023-04-25T11:40:56;3.90;;;0.53;;
36547;SDS011;22551;52.206;4.856;2023-04-25T11:45:58;3.97;;;0.40;;
36547;SDS011;22551;52.206;4.856;2023-04-25T11:51:01;4.63;;;0.60;;
36547;SDS011;22551;52.206;4.856;2023-04-25T11:56:10;5.22;;;1.50;;
36547;SDS011;22551;52.206;4.856;2023-04-25T12:01:24;1.50;;;0.32;;
36547;SDS011;22551;52.206;4.856;2023-04-25T12:06:28;1.98;;;0.30;;
36547;SDS011;22551;52.206;4.856;2023-04-25T12:11:40;6.20;;;0.95;;
36547;SDS011;22551;52.206;4.856;2023-04-25T12:16:43;9.98;;;1.08;;
36547;SDS011;22551;52.206;4.856;2023-04-25T12:21:48;1.33;;;0.40;;
36547;SDS011;22551;52.206;4.856;2023-04-25T12:26:53;1.85;;;0.35;;
36547;SDS011;22551;52.206;4.856;2023-04-25T12:32:01;5.03;;;0.28;;
36547;SDS011;22551;52.206;4.856;2023-04-25T12:37:03;3.53;;;0.50;;
36547;SDS011;22551;52.206;4.856;2023-04-25T12:42:07;6.32;;;0.47;;
36547;SDS011;22551;52.206;4.856;2023-04-25T12:47:12;3.47;;;0.30;;
36547;SDS011;22551;52.206;4.856;2023-04-25T12:52:14;3.53;;;0.63;;
36547;SDS011;22551;52.206;4.856;2023-04-25T12:57:18;1.83;;;0.40;;
36547;SDS011;22551;52.206;4.856;2023-04-25T13:02:20;1.75;;;0.55;;
36547;SDS011;22551;52.206;4.856;2023-04-25T13:07:23;4.05;;;0.82;;
36547;SDS011;22551;52.206;4.856;2023-04-25T13:12:26;3.80;;;0.60;;
36547;SDS011;22551;52.206;4.856;2023-04-25T13:17:29;7.90;;;0.50;;
36547;SDS011;22551;52.206;4.856;2023-04-25T13:22:31;4.15;;;0.85;;
36547;SDS011;22551;52.206;4.856;2023-04-25T13:27:36;5.40;;;0.75;;
36547;SDS011;22551;52.206;4.856;2023-04-25T13:32:40;1.35;;;0.52;;
36547;SDS011;22551;52.206;4.856;2023-04-25T13:37:42;1.83;;;0.57;;
36547;SDS011;22551;52.206;4.856;2023-04-25T13:42:49;3.50;;;0.52;;
36547;SDS011;22551;52.206;4.856;2023-04-25T13:48:03;4.95;;;1.00;;
36547;SDS011;22551;52.206;4.856;2023-04-25T13:53:07;4.57;;;0.50;;
36547;SDS011;22551;52.206;4.856;2023-04-25T14:03:15;8.13;;;0.55;;
36547;SDS011;22551;52.206;4.856;2023-04-25T14:08:17;1.63;;;0.50;;
36547;SDS011;22551;52.206;4.856;2023-04-25T14:13:21;2.15;;;0.55;;
36547;SDS011;22551;52.206;4.856;2023-04-25T14:18:25;2.33;;;0.70;;
36547;SDS011;22551;52.206;4.856;2023-04-25T14:23:27;2.80;;;0.57;;
36547;SDS011;22551;52.206;4.856;2023-04-25T14:28:31;2.28;;;0.50;;
36547;SDS011;22551;52.206;4.856;2023-04-25T14:33:33;2.55;;;0.43;;
36547;SDS011;22551;52.206;4.856;2023-04-25T14:38:35;6.40;;;0.57;;
36547;SDS011;22551;52.206;4.856;2023-04-25T14:43:38;5.30;;;0.60;;
36547;SDS011;22551;52.206;4.856;2023-04-25T14:48:41;1.73;;;0.52;;
36547;SDS011;22551;52.206;4.856;2023-04-25T14:53:43;3.88;;;0.60;;
36547;SDS011;22551;52.206;4.856;2023-04-25T14:58:47;7.55;;;0.95;;
36547;SDS011;22551;52.206;4.856;2023-04-25T15:03:49;1.85;;;0.70;;
36547;SDS011;22551;52.206;4.856;2023-04-25T15:08:52;3.45;;;0.52;;
36547;SDS011;22551;52.206;4.856;2023-04-25T15:13:56;6.75;;;1.05;;
36547;SDS011;22551;52.206;4.856;2023-04-25T15:18:58;4.18;;;1.30;;
36547;SDS011;22551;52.206;4.856;2023-04-25T15:24:04;5.85;;;0.70;;
36547;SDS011;22551;52.206;4.856;2023-04-25T15:29:08;4.63;;;1.13;;
36547;SDS011;22551;52.206;4.856;2023-04-25T15:34:10;4.18;;;0.50;;
36547;SDS011;22551;52.206;4.856;2023-04-25T15:39:12;4.13;;;0.85;;
36547;SDS011;22551;52.206;4.856;2023-04-25T15:44:16;2.50;;;0.68;;
36547;SDS011;22551;52.206;4.856;2023-04-25T15:49:19;8.80;;;0.60;;
36547;SDS011;22551;52.206;4.856;2023-04-25T15:54:21;13.18;;;0.80;;
36547;SDS011;22551;52.206;4.856;2023-04-25T15:59:27;4.93;;;1.25;;
36547;SDS011;22551;52.206;4.856;2023-04-25T16:04:29;2.63;;;0.93;;
36547;SDS011;22551;52.206;4.856;2023-04-25T16:14:43;2.58;;;0.50;;
36547;SDS011;22551;52.206;4.856;2023-04-25T16:19:45;7.20;;;1.48;;
36547;SDS011;22551;52.206;4.856;2023-04-25T16:24:49;2.30;;;0.77;;
36547;SDS011;22551;52.206;4.856;2023-04-25T16:29:53;7.90;;;0.80;;
36547;SDS011;22551;52.206;4.856;2023-04-25T16:34:55;5.80;;;0.80;;
36547;SDS011;22551;52.206;4.856;2023-04-25T16:39:58;6.18;;;1.13;;
36547;SDS011;22551;52.206;4.856;2023-04-25T16:45:02;5.53;;;1.00;;
36547;SDS011;22551;52.206;4.856;2023-04-25T16:50:06;5.73;;;1.37;;
36547;SDS011;22551;52.206;4.856;2023-04-25T16:55:09;2.20;;;0.80;;
36547;SDS011;22551;52.206;4.856;2023-04-25T17:00:15;6.35;;;1.27;;
36547;SDS011;22551;52.206;4.856;2023-04-25T17:05:18;14.15;;;1.10;;
36547;SDS011;22551;52.206;4.856;2023-04-25T17:10:21;8.82;;;1.13;;
36547;SDS011;22551;52.206;4.856;2023-04-25T17:15:25;6.40;;;1.55;;
36547;SDS011;22551;52.206;4.856;2023-04-25T17:20:27;8.27;;;1.65;;
36547;SDS011;22551;52.206;4.856;2023-04-25T17:25:29;4.80;;;1.80;;
36547;SDS011;22551;52.206;4.856;2023-04-25T17:30:36;2.75;;;0.95;;
36547;SDS011;22551;52.206;4.856;2023-04-25T17:35:38;3.50;;;0.95;;
36547;SDS011;22551;52.206;4.856;2023-04-25T17:40:41;7.28;;;1.58;;
36547;SDS011;22551;52.206;4.856;2023-04-25T17:45:46;4.00;;;1.20;;
36547;SDS011;22551;52.206;4.856;2023-04-25T17:50:58;2.63;;;1.00;;
36547;SDS011;22551;52.206;4.856;2023-04-25T17:56:18;3.75;;;1.35;;
36547;SDS011;22551;52.206;4.856;2023-04-25T18:01:31;11.70;;;1.30;;
36547;SDS011;22551;52.206;4.856;2023-04-25T18:06:33;11.25;;;1.65;;
36547;SDS011;22551;52.206;4.856;2023-04-25T18:11:36;5.32;;;1.55;;
36547;SDS011;22551;52.206;4.856;2023-04-25T18:16:49;1.88;;;0.80;;
36547;SDS011;22551;52.206;4.856;2023-04-25T18:22:06;5.47;;;1.88;;
36547;SDS011;22551;52.206;4.856;2023-04-25T18:27:08;5.38;;;1.67;;
36547;SDS011;22551;52.206;4.856;2023-04-25T18:32:12;6.80;;;1.65;;
36547;SDS011;22551;52.206;4.856;2023-04-25T18:37:14;3.25;;;1.65;;
36547;SDS011;22551;52.206;4.856;2023-04-25T18:42:18;4.35;;;1.20;;
36547;SDS011;22551;52.206;4.856;2023-04-25T18:47:23;10.50;;;1.30;;
36547;SDS011;22551;52.206;4.856;2023-04-25T18:52:26;6.28;;;1.77;;
36547;SDS011;22551;52.206;4.856;2023-04-25T18:57:29;3.65;;;1.55;;
36547;SDS011;22551;52.206;4.856;2023-04-25T19:02:32;5.90;;;1.30;;
36547;SDS011;22551;52.206;4.856;2023-04-25T19:12:39;4.13;;;1.63;;
36547;SDS011;22551;52.206;4.856;2023-04-25T19:17:43;4.05;;;2.67;;
36547;SDS011;22551;52.206;4.856;2023-04-25T19:22:45;7.15;;;1.83;;
36547;SDS011;22551;52.206;4.856;2023-04-25T19:27:48;5.05;;;2.15;;
36547;SDS011;22551;52.206;4.856;2023-04-25T19:32:52;11.95;;;1.80;;
36547;SDS011;22551;52.206;4.856;2023-04-25T19:37:55;10.70;;;1.92;;
36547;SDS011;22551;52.206;4.856;2023-04-25T19:42:58;13.57;;;2.00;;
36547;SDS011;22551;52.206;4.856;2023-04-25T19:48:02;7.35;;;1.27;;
36547;SDS011;22551;52.206;4.856;2023-04-25T19:53:07;4.18;;;1.40;;
36547;SDS011;22551;52.206;4.856;2023-04-25T19:58:10;3.88;;;1.58;;
36547;SDS011;22551;52.206;4.856;2023-04-25T20:03:14;7.57;;;2.00;;
36547;SDS011;22551;52.206;4.856;2023-04-25T20:08:17;7.93;;;2.25;;
36547;SDS011;22551;52.206;4.856;2023-04-25T20:13:19;6.80;;;2.08;;
36547;SDS011;22551;52.206;4.856;2023-04-25T20:18:23;5.20;;;2.05;;
36547;SDS011;22551;52.206;4.856;2023-04-25T20:23:25;3.63;;;2.40;;
36547;SDS011;22551;52.206;4.856;2023-04-25T20:28:27;7.82;;;3.15;;
36547;SDS011;22551;52.206;4.856;2023-04-25T20:33:31;6.53;;;3.30;;
36547;SDS011;22551;52.206;4.856;2023-04-25T20:38:34;5.93;;;3.10;;
36547;SDS011;22551;52.206;4.856;2023-04-25T20:43:36;11.43;;;3.85;;
36547;SDS011;22551;52.206;4.856;2023-04-25T20:48:40;8.95;;;3.72;;
36547;SDS011;22551;52.206;4.856;2023-04-25T20:53:42;12.63;;;3.45;;
36547;SDS011;22551;52.206;4.856;2023-04-25T20:58:45;8.88;;;3.25;;
36547;SDS011;22551;52.206;4.856;2023-04-25T21:03:49;4.40;;;2.63;;
36547;SDS011;22551;52.206;4.856;2023-04-25T21:08:51;6.72;;;2.83;;
36547;SDS011;22551;52.206;4.856;2023-04-25T21:13:54;8.05;;;2.95;;
36547;SDS011;22551;52.206;4.856;2023-04-25T21:18:58;7.65;;;3.85;;
36547;SDS011;22551;52.206;4.856;2023-04-25T21:24:01;10.83;;;3.73;;
36547;SDS011;22551;52.206;4.856;2023-04-25T21:29:03;8.98;;;4.05;;
36547;SDS011;22551;52.206;4.856;2023-04-25T21:34:07;18.70;;;4.88;;
36547;SDS011;22551;52.206;4.856;2023-04-25T21:39:09;7.30;;;4.03;;
36547;SDS011;22551;52.206;4.856;2023-04-25T21:44:11;9.15;;;3.63;;
36547;SDS011;22551;52.206;4.856;2023-04-25T21:49:16;10.95;;;4.00;;
36547;SDS011;22551;52.206;4.856;2023-04-25T21:54:22;7.57;;;3.63;;
36547;SDS011;22551;52.206;4.856;2023-04-25T21:59:24;4.20;;;3.03;;
36547;SDS011;22551;52.206;4.856;2023-04-25T22:04:29;7.95;;;2.85;;
36547;SDS011;22551;52.206;4.856;2023-04-25T22:09:31;10.38;;;3.28;;
36547;SDS011;22551;52.206;4.856;2023-04-25T22:14:33;5.65;;;2.53;;
36547;SDS011;22551;52.206;4.856;2023-04-25T22:19:42;6.68;;;2.40;;
36547;SDS011;22551;52.206;4.856;2023-04-25T22:24:44;4.75;;;1.98;;
36547;SDS011;22551;52.206;4.856;2023-04-25T22:29:48;9.50;;;3.60;;
36547;SDS011;22551;52.206;4.856;2023-04-25T22:34:52;12.23;;;2.80;;
36547;SDS011;22551;52.206;4.856;2023-04-25T22:39:54;4.07;;;2.25;;
36547;SDS011;22551;52.206;4.856;2023-04-25T22:44:58;7.35;;;2.67;;
36547;SDS011;22551;52.206;4.856;2023-04-25T22:50:01;8.38;;;1.58;;
36547;SDS011;22551;52.206;4.856;2023-04-25T22:55:06;4.22;;;2.13;;
36547;SDS011;22551;52.206;4.856;2023-04-25T23:00:11;10.75;;;2.20;;
36547;SDS011;22551;52.206;4.856;2023-04-25T23:05:20;4.10;;;2.35;;
36547;SDS011;22551;52.206;4.856;2023-04-25T23:10:23;4.88;;;1.65;;
36547;SDS011;22551;52.206;4.856;2023-04-25T23:15:26;5.57;;;1.73;;
36547;SDS011;22551;52.206;4.856;2023-04-25T23:20:31;8.02;;;2.05;;
36547;SDS011;22551;52.206;4.856;2023-04-25T23:25:35;3.47;;;2.28;;
36547;SDS011;22551;52.206;4.856;2023-04-25T23:30:39;3.78;;;1.80;;
36547;SDS011;22551;52.206;4.856;2023-04-25T23:35:42;5.70;;;1.70;;
36547;SDS011;22551;52.206;4.856;2023-04-25T23:40:45;8.00;;;2.28;;
36547;SDS011;22551;52.206;4.856;2023-04-25T23:45:47;5.18;;;2.40;;
36547;SDS011;22551;52.206;4.856;2023-04-25T23:50:51;5.00;;;2.63;;
36547;SDS011;22551;52.206;4.856;2023-04-25T23:55:58;4.88;;;2.22;;
